Time;durP1;ratioP1;P1;durP2;ratioP2;P2;SDS_P1;SDS_P2;PMS_P1;PMS_P2;Temp;Humidity;BMP_temperature;BMP_pressure;BME280_temperature;BME280_humidity;BME280_pressure;Samples;Min_cycle;Max_cycle;Signal;HPM_P1;HPM_P2
2022/04/08 00:02:02;;;;;;;5.40;2.25;;;;;;;6.69;73.28;97837.22;4965922;28;20063;-60
2022/04/08 00:04:28;;;;;;;5.90;2.20;;;;;;;6.83;72.93;97830.16;4966999;28;20113;-57
2022/04/08 00:06:53;;;;;;;8.80;3.33;;;;;;;6.84;72.79;97825.75;4967003;28;20061;-61
2022/04/08 00:09:19;;;;;;;5.43;2.72;;;;;;;7.05;71.57;97831.38;4968775;28;20059;-62
2022/04/08 00:11:44;;;;;;;7.88;2.88;;;;;;;7.12;69.82;97831.81;4965644;28;20530;-67
2022/04/08 00:14:09;;;;;;;6.32;2.97;;;;;;;6.69;71.35;97824.97;4970120;28;20154;-66
2022/04/08 00:16:36;;;;;;;6.25;1.98;;;;;;;6.32;72.78;97839.59;4967508;28;20042;-67
2022/04/08 00:19:02;;;;;;;5.55;2.00;;;;;;;6.11;73.34;97839.16;4952167;28;20086;-67
2022/04/08 00:21:28;;;;;;;6.70;2.40;;;;;;;5.96;73.51;97849.63;4959637;28;20467;-66
2022/04/08 00:23:54;;;;;;;5.57;2.38;;;;;;;5.86;74.80;97858.09;4968617;28;20066;-66
2022/04/08 00:26:19;;;;;;;5.82;2.63;;;;;;;5.78;74.52;97861.19;4971021;28;20066;-65
2022/04/08 00:28:45;;;;;;;7.40;2.30;;;;;;;5.72;74.84;97858.94;4973718;28;20483;-66
2022/04/08 00:31:11;;;;;;;5.45;2.25;;;;;;;5.62;75.02;97850.81;4970391;28;20042;-66
2022/04/08 00:33:37;;;;;;;2.38;1.90;;;;;;;5.59;75.70;97871.94;4970831;28;20391;-66
2022/04/08 00:36:02;;;;;;;6.60;2.88;;;;;;;5.58;75.66;97863.22;4969539;28;20039;-66
2022/04/08 00:38:28;;;;;;;5.20;1.80;;;;;;;5.54;75.28;97864.34;4970652;28;20042;-66
2022/04/08 00:40:53;;;;;;;7.88;2.15;;;;;;;5.52;75.60;97878.44;4970709;28;20495;-66
2022/04/08 00:43:19;;;;;;;3.88;2.22;;;;;;;5.52;76.20;97889.72;4970109;28;20026;-65
2022/04/08 00:45:45;;;;;;;5.68;1.90;;;;;;;5.51;76.07;97895.91;4970537;28;20534;-66
2022/04/08 00:48:11;;;;;;;5.57;1.80;;;;;;;5.50;76.15;97899.44;4970346;28;20113;-66
2022/04/08 00:50:43;;;;;;;6.88;2.67;;;;;;;5.50;76.12;97901.22;4969909;28;20062;-66
2022/04/08 00:53:09;;;;;;;2.85;1.85;;;;;;;5.53;76.41;97898.41;4970202;28;20027;-66
2022/04/08 00:55:35;;;;;;;4.07;1.85;;;;;;;5.57;76.33;97902.53;4970537;28;20126;-65
2022/04/08 00:58:04;;;;;;;5.00;2.40;;;;;;;5.59;75.97;97909.34;4970044;28;20154;-65
2022/04/08 01:00:38;;;;;;;7.68;2.15;;;;;;;5.63;76.52;97909.16;4963013;28;20042;-66
2022/04/08 01:03:04;;;;;;;2.80;1.70;;;;;;;5.60;76.15;97916.25;4973645;28;20074;-65
2022/04/08 01:05:30;;;;;;;4.28;2.03;;;;;;;5.60;76.12;97918.88;4973709;28;20042;-66
2022/04/08 01:07:56;;;;;;;3.25;1.63;;;;;;;5.61;76.60;97922.31;4973456;28;20035;-66
2022/04/08 01:10:22;;;;;;;7.70;2.13;;;;;;;5.58;76.65;97918.09;4973722;28;20049;-66
2022/04/08 01:12:50;;;;;;;3.85;2.00;;;;;;;5.56;76.38;97921.75;4972232;28;20035;-66
2022/04/08 01:15:20;;;;;;;4.38;2.30;;;;;;;5.55;77.13;97925.31;4974476;28;20031;-66
2022/04/08 01:17:46;;;;;;;7.55;2.58;;;;;;;5.51;76.89;97929.00;4972273;28;20046;-65
2022/04/08 01:20:12;;;;;;;12.30;4.20;;;;;;;5.49;76.43;97930.88;4973682;28;20035;-65
2022/04/08 01:22:38;;;;;;;8.00;2.10;;;;;;;5.46;76.47;97934.50;4973685;28;20088;-65
2022/04/08 01:25:05;;;;;;;5.03;2.70;;;;;;;5.48;77.05;97935.25;4973906;28;20446;-66
2022/04/08 01:27:31;;;;;;;9.20;3.03;;;;;;;5.52;77.13;97933.34;4973684;28;20046;-66
2022/04/08 01:29:57;;;;;;;4.97;2.00;;;;;;;5.52;77.50;97943.78;4973895;28;20105;-66
2022/04/08 01:32:22;;;;;;;3.00;2.30;;;;;;;5.53;77.74;97940.22;4973301;28;20499;-65
2022/04/08 01:34:49;;;;;;;4.20;2.25;;;;;;;5.50;77.84;97940.41;4973722;28;20035;-65
2022/04/08 01:37:15;;;;;;;10.77;2.60;;;;;;;5.45;78.19;97947.69;4973347;28;20097;-67
2022/04/08 01:39:41;;;;;;;7.05;3.63;;;;;;;5.44;78.11;97952.06;4973483;28;20062;-66
2022/04/08 01:42:07;;;;;;;9.63;3.20;;;;;;;5.45;78.18;97955.53;4972823;28;20035;-66
2022/04/08 01:44:33;;;;;;;5.07;2.63;;;;;;;5.42;78.24;97953.09;4973102;28;20035;-66
2022/04/08 01:46:58;;;;;;;7.97;2.95;;;;;;;5.37;78.42;97966.41;4973970;28;20073;-66
2022/04/08 01:49:24;;;;;;;7.32;3.33;;;;;;;5.35;79.09;97963.06;4973532;28;20053;-67
2022/04/08 01:51:49;;;;;;;8.93;2.70;;;;;;;5.33;79.33;97963.13;4971249;28;20081;-67
2022/04/08 01:54:18;;;;;;;10.40;3.28;;;;;;;5.29;78.70;97963.38;4973012;28;20498;-67
2022/04/08 01:56:44;;;;;;;11.15;3.08;;;;;;;5.29;79.26;97971.22;4973028;28;20031;-65
2022/04/08 01:59:09;;;;;;;8.45;2.80;;;;;;;5.26;78.59;97969.63;4973064;28;20045;-66
2022/04/08 02:01:35;;;;;;;5.85;2.85;;;;;;;5.24;78.92;97978.47;4972248;28;20501;-65
2022/04/08 02:04:19;;;;;;;5.75;2.40;;;;;;;5.27;78.77;97970.50;4955246;28;20037;-64
2022/04/08 02:06:44;;;;;;;7.78;2.72;;;;;;;5.25;78.81;97981.03;4972580;28;20066;-65
2022/04/08 02:09:11;;;;;;;6.55;3.08;;;;;;;5.25;78.93;97983.63;4972944;28;20035;-65
2022/04/08 02:11:37;;;;;;;8.40;3.10;;;;;;;5.25;78.52;97983.63;4971315;28;20543;-66
2022/04/08 02:14:04;;;;;;;7.57;3.30;;;;;;;5.24;78.17;97989.78;4971983;28;20089;-65
2022/04/08 02:16:29;;;;;;;4.78;2.88;;;;;;;5.24;78.29;97989.78;4974260;28;20039;-65
2022/04/08 02:18:54;;;;;;;7.40;3.45;;;;;;;5.27;78.32;97996.63;4988787;28;20109;-65
2022/04/08 02:21:20;;;;;;;6.88;2.55;;;;;;;5.26;77.64;97995.75;4991516;28;20053;-65
2022/04/08 02:23:50;;;;;;;8.02;3.53;;;;;;;5.27;78.26;98004.47;4991028;28;20037;-64
2022/04/08 02:26:16;;;;;;;7.97;2.80;;;;;;;5.30;77.84;98002.50;4990662;28;20122;-64
2022/04/08 02:28:44;;;;;;;4.60;2.83;;;;;;;5.34;78.26;98004.03;4992045;28;20035;-64
2022/04/08 02:31:10;;;;;;;6.68;2.67;;;;;;;5.36;77.17;98004.75;4991601;28;20034;-65
2022/04/08 02:33:36;;;;;;;5.97;2.70;;;;;;;5.38;76.89;98005.50;4991517;28;20441;-64
2022/04/08 02:36:02;;;;;;;6.05;2.70;;;;;;;5.38;76.23;97999.44;4992227;28;20057;-64
2022/04/08 02:38:28;;;;;;;6.72;2.75;;;;;;;5.43;76.59;98012.25;4991545;28;20112;-67
2022/04/08 02:40:53;;;;;;;3.65;2.35;;;;;;;5.45;75.75;98011.25;4976048;28;20030;-65
2022/04/08 02:43:19;;;;;;;6.53;3.13;;;;;;;5.46;75.32;98015.53;4971312;28;20081;-66
2022/04/08 02:45:44;;;;;;;7.63;3.13;;;;;;;5.50;75.07;98021.44;4972110;28;20062;-65
2022/04/08 02:48:09;;;;;;;4.15;2.10;;;;;;;5.52;74.70;98009.13;4972259;28;20042;-65
2022/04/08 02:50:35;;;;;;;6.95;2.90;;;;;;;5.54;74.04;98012.50;4971651;28;20093;-65
2022/04/08 02:53:00;;;;;;;11.02;6.22;;;;;;;5.57;74.27;98009.69;4971496;28;20031;-66
2022/04/08 02:55:26;;;;;;;5.50;2.78;;;;;;;5.55;74.14;98022.00;4972013;28;20070;-64
2022/04/08 02:57:51;;;;;;;4.80;2.55;;;;;;;5.54;74.11;98018.56;4971978;28;20517;-65
2022/04/08 03:00:19;;;;;;;6.40;2.50;;;;;;;5.50;74.33;98013.59;4972239;28;20039;-65
2022/04/08 03:02:45;;;;;;;5.30;3.35;;;;;;;5.48;74.36;98012.84;4971713;28;20460;-66
2022/04/08 03:05:11;;;;;;;4.82;2.15;;;;;;;5.44;74.31;98012.19;4971882;28;20039;-66
2022/04/08 03:07:36;;;;;;;6.78;2.85;;;;;;;5.40;74.39;98008.03;4971548;28;20598;-66
2022/04/08 03:10:03;;;;;;;6.25;2.35;;;;;;;5.38;74.41;98007.28;4970758;28;20490;-66
2022/04/08 03:12:29;;;;;;;5.13;2.45;;;;;;;5.36;74.97;98002.13;4970658;28;20047;-66
2022/04/08 03:14:55;;;;;;;9.00;2.58;;;;;;;5.35;74.67;98003.06;4971807;28;20511;-66
2022/04/08 03:17:20;;;;;;;4.07;2.13;;;;;;;5.32;75.49;97994.59;4972103;28;20117;-66
2022/04/08 03:19:45;;;;;;;5.10;2.30;;;;;;;5.30;75.57;97992.03;4971454;28;20454;-65
2022/04/08 03:22:11;;;;;;;5.45;2.95;;;;;;;5.31;75.45;97990.28;4970099;28;20479;-67
2022/04/08 03:24:36;;;;;;;4.70;2.38;;;;;;;5.34;75.86;98000.53;4971293;28;20031;-66
2022/04/08 03:27:02;;;;;;;5.95;2.40;;;;;;;5.33;75.90;98004.09;4971128;28;20031;-65
2022/04/08 03:29:27;;;;;;;11.90;2.97;;;;;;;5.29;75.94;97990.38;5003071;28;20049;-66
2022/04/08 03:31:52;;;;;;;5.82;2.75;;;;;;;5.30;75.65;97991.22;4972348;28;20093;-66
2022/04/08 03:34:18;;;;;;;8.00;2.88;;;;;;;5.29;76.28;97997.34;4972430;28;20502;-66
2022/04/08 03:36:45;;;;;;;6.13;2.50;;;;;;;5.26;76.37;98000.97;4972384;28;20502;-64
2022/04/08 03:39:10;;;;;;;4.40;2.53;;;;;;;5.24;75.92;97999.38;4972172;28;20517;-65
2022/04/08 03:41:36;;;;;;;5.07;3.17;;;;;;;5.20;76.32;98000.50;4970827;28;20062;-64
2022/04/08 03:44:01;;;;;;;4.13;2.65;;;;;;;5.20;76.48;97998.72;4969972;28;20042;-63
2022/04/08 03:46:26;;;;;;;7.68;2.97;;;;;;;5.20;76.47;98006.56;5002043;28;20057;-64
2022/04/08 03:48:52;;;;;;;5.97;2.72;;;;;;;5.16;76.46;98013.72;4971218;28;20062;-64
2022/04/08 03:51:17;;;;;;;5.00;3.03;;;;;;;5.13;76.49;98018.28;4970940;28;20089;-65
2022/04/08 03:53:42;;;;;;;6.18;3.40;;;;;;;5.11;76.29;98020.97;4971692;28;20059;-65
2022/04/08 03:56:08;;;;;;;5.78;3.08;;;;;;;5.12;76.25;98016.59;4972814;28;20455;-65
2022/04/08 03:58:33;;;;;;;6.20;3.40;;;;;;;5.13;76.76;98015.66;4971384;28;20034;-64
2022/04/08 04:00:59;;;;;;;7.55;4.68;;;;;;;5.14;76.37;98014.72;4969299;28;20035;-65
2022/04/08 04:03:25;;;;;;;14.63;7.72;;;;;;;5.14;76.76;98020.81;4971103;28;20109;-64
2022/04/08 04:05:50;;;;;;;11.85;4.72;;;;;;;5.12;76.42;98021.81;4971279;28;20471;-65
2022/04/08 04:08:18;;;;;;;9.38;3.17;;;;;;;5.11;76.59;98017.50;4971310;28;20030;-65
2022/04/08 04:10:45;;;;;;;12.40;3.55;;;;;;;5.10;76.85;98021.06;4970200;28;20023;-67
2022/04/08 04:13:10;;;;;;;11.40;3.65;;;;;;;5.07;77.05;98019.47;4971331;28;20487;-66
2022/04/08 04:15:36;;;;;;;6.68;3.17;;;;;;;5.09;76.96;98029.81;4948597;28;20078;-65
2022/04/08 04:18:01;;;;;;;8.70;3.42;;;;;;;5.07;77.21;98039.50;4952393;28;20047;-67
2022/04/08 04:20:26;;;;;;;8.13;3.83;;;;;;;5.06;77.50;98036.03;4950688;28;20047;-66
2022/04/08 04:22:53;;;;;;;6.82;3.55;;;;;;;5.05;77.39;98036.16;4951859;28;20062;-64
2022/04/08 04:25:18;;;;;;;5.63;3.25;;;;;;;5.04;77.63;98032.66;4952161;28;20449;-64
2022/04/08 04:27:44;;;;;;;8.73;4.43;;;;;;;5.04;77.53;98029.22;4952602;28;20051;-66
2022/04/08 04:30:10;;;;;;;10.80;3.42;;;;;;;5.06;77.50;98024.75;4952055;28;20042;-64
2022/04/08 04:32:35;;;;;;;9.52;3.67;;;;;;;5.09;77.34;98021.97;4952329;28;20045;-65
2022/04/08 04:35:06;;;;;;;9.73;3.90;;;;;;;5.12;77.44;98014.81;4962625;28;20062;-65
2022/04/08 04:37:33;;;;;;;5.70;3.42;;;;;;;5.14;77.52;98005.16;4976046;28;20046;-65
2022/04/08 04:39:58;;;;;;;9.75;3.90;;;;;;;5.16;77.63;98011.09;4975468;28;20093;-63
2022/04/08 04:42:26;;;;;;;10.57;4.25;;;;;;;5.18;77.30;98004.97;4975965;28;20051;-65
2022/04/08 04:44:52;;;;;;;8.65;4.85;;;;;;;5.21;77.39;98005.63;4974843;28;20045;-63
2022/04/08 04:47:18;;;;;;;8.52;3.67;;;;;;;5.23;77.52;98001.16;4974608;28;20038;-65
2022/04/08 04:49:43;;;;;;;12.40;5.57;;;;;;;5.24;77.65;97992.41;4974516;28;20035;-64
2022/04/08 04:52:08;;;;;;;7.78;4.50;;;;;;;5.23;77.02;98000.31;4976974;28;20065;-66
2022/04/08 04:54:34;;;;;;;7.10;3.38;;;;;;;5.23;77.14;97989.88;4975479;28;20031;-63
2022/04/08 04:56:59;;;;;;;9.90;4.13;;;;;;;5.22;77.07;97989.03;4974523;28;20049;-64
2022/04/08 04:59:24;;;;;;;9.73;4.13;;;;;;;5.21;77.14;97994.34;4974401;28;20119;-65
2022/04/08 05:01:50;;;;;;;7.78;4.60;;;;;;;5.21;77.12;97995.16;4974072;28;20042;-65
2022/04/08 05:04:15;;;;;;;8.18;4.07;;;;;;;5.21;77.56;98003.00;4975228;28;20114;-65
2022/04/08 05:06:40;;;;;;;6.20;4.20;;;;;;;5.21;76.89;98002.16;4974830;28;20475;-64
2022/04/08 05:09:06;;;;;;;6.65;3.72;;;;;;;5.22;76.89;97999.50;4973691;28;20074;-64
2022/04/08 05:11:32;;;;;;;9.45;4.82;;;;;;;5.23;76.61;98001.16;4970040;28;20553;-65
2022/04/08 05:13:57;;;;;;;6.75;4.35;;;;;;;5.24;76.18;97996.75;4957146;28;20038;-65
2022/04/08 05:16:23;;;;;;;9.63;3.67;;;;;;;5.23;76.13;97998.53;4967756;28;20047;-64
2022/04/08 05:18:48;;;;;;;8.77;3.72;;;;;;;5.24;76.32;98008.09;4968397;28;20043;-64
2022/04/08 05:21:13;;;;;;;9.15;4.00;;;;;;;5.25;76.42;98014.16;4967951;28;20042;-66
2022/04/08 05:23:39;;;;;;;7.57;3.90;;;;;;;5.25;75.88;98006.31;4968624;28;20101;-65
2022/04/08 05:26:04;;;;;;;6.20;3.83;;;;;;;5.26;76.31;98007.97;4968823;28;20039;-66
2022/04/08 05:28:29;;;;;;;8.15;4.30;;;;;;;5.28;76.31;98008.75;4968864;28;20809;-66
2022/04/08 05:30:55;;;;;;;11.15;4.88;;;;;;;5.31;76.38;98009.38;4968668;28;20038;-65
2022/04/08 05:33:20;;;;;;;5.43;3.80;;;;;;;5.36;76.69;98009.13;4968073;28;20050;-65
2022/04/08 05:35:45;;;;;;;9.90;4.75;;;;;;;5.37;76.45;98003.84;4969033;28;20035;-64
2022/04/08 05:38:11;;;;;;;9.32;4.90;;;;;;;5.40;76.75;98001.97;4969096;28;20038;-66
2022/04/08 05:40:36;;;;;;;9.77;5.07;;;;;;;5.43;76.46;97999.19;4968464;28;20038;-65
2022/04/08 05:43:02;;;;;;;7.75;4.68;;;;;;;5.48;76.26;98000.59;4968051;28;20039;-65
2022/04/08 05:45:27;;;;;;;6.55;4.70;;;;;;;5.49;76.52;98006.66;4967271;28;20127;-64
2022/04/08 05:47:55;;;;;;;7.03;5.45;;;;;;;5.54;76.25;98000.25;4969130;28;20039;-65
2022/04/08 05:50:21;;;;;;;8.77;5.43;;;;;;;5.55;75.57;97996.72;4966781;28;20042;-63
2022/04/08 05:52:48;;;;;;;9.75;5.00;;;;;;;5.58;75.44;97988.69;4969711;28;20058;-65
2022/04/08 05:55:14;;;;;;;7.70;4.57;;;;;;;5.62;75.19;97991.97;4974271;28;20046;-66
2022/04/08 05:57:40;;;;;;;7.55;4.25;;;;;;;5.69;74.92;97989.84;4973624;28;20069;-66
2022/04/08 06:00:08;;;;;;;8.02;4.07;;;;;;;5.70;74.56;97994.13;4972902;28;20042;-66
2022/04/08 06:02:33;;;;;;;14.10;4.40;;;;;;;5.78;74.59;97991.91;4963864;28;20091;-67
2022/04/08 06:04:59;;;;;;;8.32;4.20;;;;;;;5.80;74.28;97990.88;4967704;28;20034;-66
2022/04/08 06:07:24;;;;;;;7.32;3.80;;;;;;;5.86;73.84;97978.38;4969601;28;20034;-67
2022/04/08 06:09:50;;;;;;;11.30;4.70;;;;;;;5.86;73.36;97979.25;4968439;28;20527;-65
2022/04/08 06:12:15;;;;;;;8.52;4.13;;;;;;;5.91;74.29;97978.97;4967369;28;20030;-66
2022/04/08 06:14:41;;;;;;;10.52;4.47;;;;;;;5.97;73.79;97974.25;4968204;28;20066;-66
2022/04/08 06:17:06;;;;;;;9.75;4.28;;;;;;;6.04;73.33;97972.09;4968438;28;20410;-65
2022/04/08 06:19:31;;;;;;;9.95;3.65;;;;;;;6.07;73.41;97955.38;4967892;28;20054;-66
2022/04/08 06:21:57;;;;;;;12.57;3.80;;;;;;;6.05;73.00;97959.84;4965775;28;20046;-66
2022/04/08 06:24:23;;;;;;;8.25;3.83;;;;;;;6.06;73.17;97958.94;4982272;28;20380;-66
2022/04/08 06:26:48;;;;;;;7.63;4.18;;;;;;;6.07;73.02;97969.28;4968539;28;20050;-64
2022/04/08 06:29:13;;;;;;;9.50;3.83;;;;;;;6.16;72.75;97970.53;4967693;28;20049;-65
2022/04/08 06:31:39;;;;;;;6.28;3.50;;;;;;;6.21;73.10;97971.94;4967562;28;20027;-66
2022/04/08 06:34:04;;;;;;;9.10;3.40;;;;;;;6.23;72.47;97969.22;4968508;28;20093;-66
2022/04/08 06:36:30;;;;;;;5.95;3.40;;;;;;;6.30;72.78;97967.91;4968506;28;20047;-66
2022/04/08 06:38:55;;;;;;;14.63;3.80;;;;;;;6.37;72.82;97969.19;4967067;28;20034;-65
2022/04/08 06:41:21;;;;;;;12.95;4.00;;;;;;;6.40;72.33;97969.03;4967491;28;20117;-67
2022/04/08 06:43:46;;;;;;;9.55;4.03;;;;;;;6.38;71.76;97968.28;4967539;28;20033;-67
2022/04/08 06:46:12;;;;;;;13.73;4.47;;;;;;;6.47;71.82;97969.47;4967672;28;20031;-67
2022/04/08 06:48:37;;;;;;;6.03;3.60;;;;;;;6.52;72.10;97971.81;4966021;28;20458;-66
2022/04/08 06:51:06;;;;;;;12.85;4.22;;;;;;;6.56;71.50;97968.91;4966544;28;20043;-66
2022/04/08 06:53:32;;;;;;;13.68;4.55;;;;;;;6.63;71.78;97972.84;4967124;28;20047;-66
2022/04/08 06:55:58;;;;;;;8.25;3.97;;;;;;;6.73;71.69;97965.25;4967545;28;20127;-66
2022/04/08 06:58:26;;;;;;;9.13;4.55;;;;;;;6.77;70.93;97974.59;4966216;28;20126;-66
2022/04/08 07:00:55;;;;;;;8.25;3.40;;;;;;;6.77;70.93;97964.13;4966960;28;20227;-66
2022/04/08 07:03:20;;;;;;;10.70;3.60;;;;;;;6.75;70.50;97962.53;4966529;28;20124;-67
2022/04/08 07:05:46;;;;;;;7.78;4.55;;;;;;;6.76;70.20;97964.22;4967111;28;20035;-65
2022/04/08 07:08:11;;;;;;;5.78;3.72;;;;;;;6.74;70.50;97960.84;4967524;28;20491;-64
2022/04/08 07:10:40;;;;;;;10.70;4.57;;;;;;;6.87;70.45;97961.78;4965637;28;20047;-64
2022/04/08 07:13:06;;;;;;;9.10;3.72;;;;;;;6.95;70.41;97962.13;4966285;28;20038;-65
2022/04/08 07:15:32;;;;;;;7.07;3.92;;;;;;;6.98;70.12;97967.16;4966379;28;20038;-65
2022/04/08 07:17:57;;;;;;;8.30;4.60;;;;;;;7.05;69.47;97960.59;4964675;28;20467;-64
2022/04/08 07:20:23;;;;;;;7.57;3.45;;;;;;;7.10;69.24;97966.38;4966415;28;20053;-65
2022/04/08 07:22:49;;;;;;;5.63;3.53;;;;;;;7.09;68.61;97967.31;4966262;28;20105;-64
2022/04/08 07:25:15;;;;;;;9.80;3.60;;;;;;;7.03;67.79;97962.44;4967083;28;20437;-64
2022/04/08 07:27:44;;;;;;;7.10;3.78;;;;;;;7.05;68.90;97952.72;4966783;28;20514;-66
2022/04/08 07:30:11;;;;;;;6.20;3.42;;;;;;;7.06;68.01;97961.41;4966642;28;20039;-64
2022/04/08 07:32:36;;;;;;;6.03;3.58;;;;;;;7.01;66.31;97959.09;4964617;28;20093;-64
2022/04/08 07:35:02;;;;;;;8.88;3.30;;;;;;;6.98;65.94;97961.91;4966372;28;20043;-66
2022/04/08 07:37:31;;;;;;;8.48;3.03;;;;;;;7.01;66.12;97959.09;4966930;28;20042;-65
2022/04/08 07:39:58;;;;;;;7.28;4.32;;;;;;;7.03;66.52;97967.69;4966098;28;20129;-65
2022/04/08 07:42:26;;;;;;;18.38;4.47;;;;;;;7.04;66.49;97961.53;4964178;28;20125;-65
2022/04/08 07:44:53;;;;;;;9.85;3.30;;;;;;;7.08;66.50;97965.63;4963844;28;20038;-64
2022/04/08 07:47:20;;;;;;;7.55;3.92;;;;;;;7.12;66.85;97958.41;4975969;28;20034;-65
2022/04/08 07:49:47;;;;;;;8.95;4.13;;;;;;;7.17;66.90;97958.97;4962317;28;20458;-65
2022/04/08 07:52:12;;;;;;;6.25;3.67;;;;;;;7.24;66.16;97954.16;4950869;28;20031;-64
2022/04/08 07:54:37;;;;;;;12.73;3.97;;;;;;;7.24;67.00;97946.31;4970956;28;20035;-65
2022/04/08 07:57:03;;;;;;;11.93;3.78;;;;;;;7.31;66.99;97947.59;4970133;28;20054;-65
2022/04/08 07:59:28;;;;;;;7.80;3.70;;;;;;;7.37;66.67;97954.19;4970737;28;20113;-65
2022/04/08 08:01:54;;;;;;;8.48;3.75;;;;;;;7.43;66.30;97944.16;4970314;28;20123;-64
2022/04/08 08:04:19;;;;;;;8.13;3.03;;;;;;;7.49;66.37;97937.66;4971494;28;20130;-65
2022/04/08 08:06:44;;;;;;;11.85;3.88;;;;;;;7.51;65.95;97934.00;4971067;28;20039;-63
2022/04/08 08:09:10;;;;;;;15.82;4.85;;;;;;;7.50;66.70;97936.72;4969523;28;20039;-64
2022/04/08 08:11:35;;;;;;;14.40;4.55;;;;;;;7.47;66.23;97936.91;4970138;28;20114;-66
2022/04/08 08:14:00;;;;;;;9.88;4.45;;;;;;;7.51;66.31;97934.00;4970915;28;20549;-64
2022/04/08 08:16:26;;;;;;;7.82;4.30;;;;;;;7.53;66.17;97921.63;4970656;28;20067;-65
2022/04/08 08:18:56;;;;;;;11.23;5.43;;;;;;;7.49;66.03;97922.75;4969405;28;20466;-63
2022/04/08 08:21:25;;;;;;;11.77;4.97;;;;;;;7.49;66.24;97917.53;4970508;28;20436;-65
2022/04/08 08:23:51;;;;;;;10.35;4.90;;;;;;;7.52;66.13;97913.84;4970319;28;20093;-65
2022/04/08 08:26:16;;;;;;;8.52;5.22;;;;;;;7.50;66.29;97916.56;4970697;28;20031;-65
2022/04/08 08:28:42;;;;;;;17.08;5.35;;;;;;;7.52;65.92;97901.56;4970883;28;20046;-64
2022/04/08 08:31:07;;;;;;;10.23;5.05;;;;;;;7.53;66.32;97902.41;4966467;28;20035;-64
2022/04/08 08:33:33;;;;;;;19.80;6.50;;;;;;;7.58;66.23;97897.72;4970987;28;20073;-64
2022/04/08 08:35:58;;;;;;;14.20;5.45;;;;;;;7.63;66.07;97893.00;4970626;28;20038;-64
2022/04/08 08:38:23;;;;;;;12.82;6.38;;;;;;;7.69;65.43;97894.38;4970565;28;20065;-65
2022/04/08 08:40:50;;;;;;;9.98;6.32;;;;;;;7.70;64.88;97889.03;4970595;28;20665;-65
2022/04/08 08:43:19;;;;;;;13.88;6.38;;;;;;;7.74;65.22;97889.63;4970578;28;20089;-64
2022/04/08 08:45:47;;;;;;;13.25;6.35;;;;;;;7.75;65.73;97875.56;4971014;28;20169;-64
2022/04/08 08:48:14;;;;;;;21.15;9.85;;;;;;;7.80;65.54;97872.63;4970248;28;20043;-64
2022/04/08 08:50:46;;;;;;;15.00;7.25;;;;;;;7.80;65.93;97875.25;4970300;28;20023;-64
2022/04/08 08:53:16;;;;;;;16.52;8.27;;;;;;;7.79;65.89;97869.19;4970425;28;20030;-64
2022/04/08 08:55:41;;;;;;;21.45;7.63;;;;;;;7.84;65.94;97864.47;4971398;28;20035;-65
2022/04/08 08:58:08;;;;;;;18.98;7.82;;;;;;;7.89;65.67;97859.72;4971377;28;20086;-65
2022/04/08 09:00:35;;;;;;;17.27;8.10;;;;;;;7.92;65.95;97856.06;4970686;28;20054;-65
2022/04/08 09:03:03;;;;;;;15.02;7.50;;;;;;;8.05;65.61;97843.78;4969857;28;20030;-65
2022/04/08 09:05:29;;;;;;;12.77;6.70;;;;;;;8.11;65.04;97848.56;4970137;28;20042;-65
2022/04/08 09:07:59;;;;;;;12.00;6.63;;;;;;;8.13;64.97;97843.22;4970788;28;20047;-65
2022/04/08 09:10:35;;;;;;;11.07;7.20;;;;;;;8.17;64.34;97839.41;4970210;28;20463;-65
2022/04/08 09:13:01;;;;;;;;;;;;;;;8.22;65.22;97842.59;4970818;28;20042;-65
2022/04/08 09:15:27;;;;;;;12.88;6.50;;;;;;;8.27;64.22;97840.47;4970716;28;19941;-64
2022/04/08 09:17:53;;;;;;;18.92;9.43;;;;;;;8.25;64.55;97833.66;4968635;28;20039;-64
2022/04/08 09:20:19;;;;;;;14.90;8.90;;;;;;;8.29;64.81;97832.47;4971364;28;20049;-65
2022/04/08 09:22:54;;;;;;;15.00;8.10;;;;;;;8.32;63.87;97827.03;4973000;28;20038;-64
2022/04/08 09:25:24;;;;;;;18.83;9.90;;;;;;;8.34;63.72;97822.47;4975250;28;20042;-62
2022/04/08 09:27:49;;;;;;;13.30;8.57;;;;;;;8.31;64.13;97814.81;4975234;28;20039;-65
2022/04/08 09:30:19;;;;;;;17.27;8.95;;;;;;;8.31;63.84;97818.28;4973343;28;20108;-65
2022/04/08 09:32:44;;;;;;;20.45;8.55;;;;;;;8.39;63.92;97812.47;4973277;28;20043;-64
2022/04/08 09:35:16;;;;;;;16.73;9.45;;;;;;;8.34;63.26;97812.84;4973975;28;20440;-63
2022/04/08 09:37:41;;;;;;;16.27;8.60;;;;;;;8.27;64.81;97818.59;4973500;28;20043;-64
2022/04/08 09:40:08;;;;;;;21.60;9.88;;;;;;;8.29;64.67;97820.16;4972594;28;20035;-64
2022/04/08 09:42:47;;;;;;;24.42;10.02;;;;;;;8.36;64.28;97828.47;4969316;28;20684;-64
2022/04/08 09:45:14;;;;;;;16.15;8.93;;;;;;;8.40;63.92;97831.75;4972380;28;20170;-63
2022/04/08 09:47:40;;;;;;;22.15;11.18;;;;;;;8.36;63.96;97839.78;4973512;28;20046;-65
2022/04/08 09:50:10;;;;;;;20.60;10.27;;;;;;;8.36;63.94;97834.53;4973837;28;20042;-66
2022/04/08 09:52:39;;;;;;;14.57;10.25;;;;;;;8.41;63.90;97834.25;4973920;28;20494;-65
2022/04/08 09:55:07;;;;;;;21.10;9.98;;;;;;;8.39;63.23;97841.34;4973897;28;20039;-66
2022/04/08 09:57:36;;;;;;;19.13;9.65;;;;;;;8.38;63.40;97842.31;4974900;28;20039;-64
2022/04/08 10:00:04;;;;;;;20.17;9.05;;;;;;;8.38;63.53;97839.69;4974606;28;20413;-66
2022/04/08 10:02:33;;;;;;;19.75;9.77;;;;;;;8.42;63.93;97838.56;4974692;28;20049;-65
2022/04/08 10:04:59;;;;;;;19.40;9.25;;;;;;;8.38;63.17;97843.16;4973743;28;20045;-65
2022/04/08 10:07:26;;;;;;;11.38;7.03;;;;;;;8.35;63.88;97851.25;4972950;28;20089;-66
2022/04/08 10:10:04;;;;;;;17.48;8.70;;;;;;;8.20;64.69;97839.22;4972937;28;20035;-64
2022/04/08 10:13:10;;;;;;;12.98;7.78;;;;;;;8.12;65.05;97837.16;4972952;28;20042;-66
2022/04/08 10:15:35;;;;;;;20.88;7.22;;;;;;;8.07;66.03;97843.66;4949259;28;20042;-66
2022/04/08 10:18:05;;;;;;;13.57;7.57;;;;;;;8.14;65.36;97837.03;4972349;28;20031;-65
2022/04/08 10:20:33;;;;;;;13.45;7.82;;;;;;;8.16;65.16;97837.75;4971928;28;20039;-65
2022/04/08 10:23:10;;;;;;;11.98;7.55;;;;;;;8.21;65.29;97835.63;4972688;28;20069;-65
2022/04/08 10:25:42;;;;;;;20.55;8.05;;;;;;;8.27;65.24;97840.47;4973117;28;20041;-63
2022/04/08 10:28:09;;;;;;;23.80;9.18;;;;;;;8.25;65.30;97838.91;4973200;28;20122;-64
2022/04/08 10:30:46;;;;;;;21.58;9.73;;;;;;;8.26;66.08;97825.66;4973086;28;20038;-64
2022/04/08 10:33:13;;;;;;;19.58;8.15;;;;;;;8.29;65.57;97822.78;4970400;28;20042;-64
2022/04/08 10:35:51;;;;;;;19.05;9.23;;;;;;;8.25;65.24;97818.75;4972593;28;20035;-65
2022/04/08 10:38:16;;;;;;;17.65;8.25;;;;;;;8.23;64.96;97814.53;4972639;28;20419;-65
2022/04/08 10:40:52;;;;;;;16.83;8.70;;;;;;;8.21;65.34;97814.63;4972569;28;20135;-63
2022/04/08 10:43:17;;;;;;;;;;;;;;;8.23;65.65;97796.16;4972820;28;20045;-66
2022/04/08 10:45:53;;;;;;;14.20;6.97;;;;;;;8.23;66.88;97797.00;4972528;28;20064;-65
2022/04/08 10:48:18;;;;;;;14.68;8.88;;;;;;;8.22;66.36;97782.22;4972319;28;20035;-65
2022/04/08 10:50:44;;;;;;;14.32;8.98;;;;;;;8.27;66.20;97774.84;4971918;28;20086;-64
2022/04/08 10:53:11;;;;;;;18.33;6.60;;;;;;;8.27;61.35;97771.34;4972224;28;20043;-66
2022/04/08 10:55:55;;;;;;;9.15;3.85;;;;;;;8.24;55.90;97767.16;4972566;28;20042;-65
2022/04/08 10:58:41;;;;;;;12.82;5.50;;;;;;;8.27;55.72;97764.34;4972112;28;20114;-65
2022/04/08 11:01:14;;;;;;;;;;;;;;;8.24;55.35;97776.84;4971363;28;20547;-64
2022/04/08 11:03:45;;;;;;;8.07;5.18;;;;;;;8.20;55.33;97760.47;4972662;28;19925;-64
2022/04/08 11:06:10;;;;;;;6.63;4.65;;;;;;;8.23;54.21;97768.13;4972088;28;20054;-65
2022/04/08 11:08:36;;;;;;;5.28;3.08;;;;;;;8.23;52.85;97762.88;4971622;28;20062;-66
2022/04/08 11:11:01;;;;;;;5.70;3.28;;;;;;;8.28;54.35;97752.06;4970775;28;20050;-65
2022/04/08 11:13:27;;;;;;;7.90;4.22;;;;;;;8.29;53.83;97753.72;4971479;28;20042;-66
2022/04/08 11:15:52;;;;;;;9.93;3.53;;;;;;;8.26;54.58;97752.16;4970119;28;20038;-65
2022/04/08 11:18:18;;;;;;;7.50;4.05;;;;;;;8.17;55.58;97745.78;4971739;28;20047;-66
2022/04/08 11:20:49;;;;;;;10.52;4.22;;;;;;;8.01;56.76;97737.34;4971499;28;20494;-66
2022/04/08 11:23:32;;;;;;;5.20;3.55;;;;;;;7.96;56.91;97735.03;4971767;28;20059;-65
2022/04/08 11:25:58;;;;;;;6.45;2.92;;;;;;;7.83;55.79;97736.03;4971651;28;20031;-67
2022/04/08 11:28:24;;;;;;;4.28;3.03;;;;;;;7.89;56.58;97735.59;4971600;28;20034;-66
2022/04/08 11:30:59;;;;;;;10.02;2.85;;;;;;;7.97;55.60;97743.75;4971465;28;20387;-65
2022/04/08 11:33:25;;;;;;;7.63;2.78;;;;;;;7.93;54.87;97737.06;4971163;28;20439;-65
2022/04/08 11:35:57;;;;;;;5.85;3.42;;;;;;;7.88;55.50;97732.13;4971280;28;20042;-66
2022/04/08 11:38:23;;;;;;;7.57;3.75;;;;;;;7.80;55.90;97733.63;4966979;28;20622;-66